createdAt,value
2023-03-11T00:00:29.275Z,77.35
2023-03-11T00:03:17.872Z,77.25
2023-03-11T00:05:45.973Z,77.02
2023-03-11T00:08:15.924Z,76.95
2023-03-11T00:10:44.581Z,76.85
2023-03-11T00:13:13.294Z,76.79
2023-03-11T00:15:41.902Z,76.67
2023-03-11T00:18:08.865Z,76.74
2023-03-11T00:20:38.002Z,76.68
2023-03-11T00:23:06.514Z,76.68
2023-03-11T00:25:35.339Z,76.75
2023-03-11T00:28:02.723Z,76.66
2023-03-11T00:30:29.638Z,76.61
2023-03-11T00:32:58.166Z,76.69
2023-03-11T00:35:28.407Z,76.80
2023-03-11T00:37:57.954Z,76.95
2023-03-11T00:40:27.347Z,76.99
2023-03-11T00:42:54.073Z,77.00
2023-03-11T00:45:21.292Z,77.09
2023-03-11T00:47:47.906Z,76.99
2023-03-11T00:50:18.472Z,77.08
2023-03-11T00:52:46.291Z,77.03
2023-03-11T00:55:16.132Z,77.05
2023-03-11T00:57:43.367Z,77.07
2023-03-11T01:00:18.549Z,77.02
2023-03-11T01:02:45.644Z,77.06
2023-03-11T01:05:12.562Z,77.08
2023-03-11T01:07:39.492Z,77.11
2023-03-11T01:10:09.194Z,77.18
2023-03-11T01:12:35.815Z,77.14
2023-03-11T01:15:03.870Z,77.23
2023-03-11T01:17:30.503Z,77.16
2023-03-11T01:19:57.251Z,77.16
2023-03-11T01:22:24.144Z,77.20
2023-03-11T01:24:50.738Z,77.10
2023-03-11T01:27:17.331Z,77.19
2023-03-11T01:29:43.959Z,77.33
2023-03-11T01:32:10.747Z,77.30
2023-03-11T01:34:37.411Z,77.41
2023-03-11T01:37:04.258Z,77.38
2023-03-11T01:39:31.011Z,77.52
2023-03-11T01:41:57.905Z,77.43
2023-03-11T01:44:24.999Z,77.36
2023-03-11T01:46:52.150Z,77.41
2023-03-11T01:49:22.096Z,77.32
2023-03-11T01:51:56.666Z,77.32
2023-03-11T01:54:33.185Z,77.36
2023-03-11T01:57:04.712Z,77.30
2023-03-11T01:59:35.518Z,77.39
2023-03-11T02:02:02.324Z,77.44
2023-03-11T02:04:28.917Z,77.41
2023-03-11T02:06:56.722Z,77.40
2023-03-11T02:09:23.597Z,77.44
2023-03-11T02:11:50.787Z,77.30
2023-03-11T02:14:18.842Z,77.24
2023-03-11T02:16:45.702Z,77.27
2023-03-11T02:19:28.205Z,77.24
2023-03-11T02:21:56.120Z,77.27
2023-03-11T02:24:29.490Z,77.15
2023-03-11T02:27:00.911Z,77.24
2023-03-11T02:29:29.353Z,77.11
2023-03-11T02:31:58.059Z,77.23
2023-03-11T02:34:36.591Z,77.26
2023-03-11T02:37:06.102Z,77.28
2023-03-11T02:39:39.926Z,77.22
2023-03-11T02:42:22.214Z,77.22
2023-03-11T02:44:58.329Z,77.13
2023-03-11T02:47:27.888Z,77.26
2023-03-11T02:49:56.311Z,77.26
2023-03-11T02:52:28.209Z,77.37
2023-03-11T02:54:54.942Z,77.32
2023-03-11T02:57:21.614Z,77.50
2023-03-11T02:59:48.267Z,77.42
2023-03-11T03:02:15.163Z,77.43
2023-03-11T03:04:42.240Z,77.56
2023-03-11T03:07:08.915Z,77.43
2023-03-11T03:09:37.458Z,77.65
2023-03-11T03:12:04.368Z,77.59
2023-03-11T03:14:31.818Z,77.52
2023-03-11T03:16:58.849Z,77.65
2023-03-11T03:19:25.615Z,77.64
2023-03-11T03:21:52.867Z,77.81
2023-03-11T03:24:20.900Z,77.94
2023-03-11T03:26:48.070Z,78.42
2023-03-11T03:29:14.625Z,78.96
2023-03-11T03:31:41.630Z,79.22
2023-03-11T03:34:08.661Z,79.44
2023-03-11T03:36:35.570Z,79.46
2023-03-11T03:39:04.694Z,79.50
2023-03-11T03:41:34.274Z,79.56
2023-03-11T03:44:01.913Z,79.62
2023-03-11T03:46:29.290Z,79.72
2023-03-11T03:48:57.945Z,79.93
2023-03-11T03:51:24.822Z,80.01
2023-03-11T03:54:11.149Z,80.03
2023-03-11T03:56:37.798Z,80.15
2023-03-11T03:59:04.455Z,80.19
2023-03-11T04:01:36.569Z,80.14
2023-03-11T04:04:21.851Z,80.18
2023-03-11T04:06:48.840Z,80.34
2023-03-11T04:09:18.575Z,80.28
2023-03-11T04:11:45.810Z,80.08
2023-03-11T04:14:13.536Z,80.09
2023-03-11T04:16:43.930Z,80.17
2023-03-11T04:19:11.695Z,80.16
2023-03-11T04:21:38.684Z,79.91
2023-03-11T04:24:05.621Z,79.83
2023-03-11T04:26:35.196Z,80.07
2023-03-11T04:29:02.820Z,79.87
2023-03-11T04:31:31.449Z,79.83
2023-03-11T04:33:59.512Z,79.75
2023-03-11T04:36:26.520Z,79.85
2023-03-11T04:38:54.597Z,79.94
2023-03-11T04:41:21.435Z,80.06
2023-03-11T04:43:48.862Z,80.09
2023-03-11T04:46:15.863Z,80.02
2023-03-11T04:48:42.699Z,80.02
2023-03-11T04:51:09.418Z,79.79
2023-03-11T04:53:36.400Z,79.91
2023-03-11T04:56:03.774Z,80.03
2023-03-11T04:58:30.988Z,79.84
2023-03-11T05:00:57.901Z,79.91
2023-03-11T05:03:24.704Z,79.97
2023-03-11T05:05:54.446Z,79.88
2023-03-11T05:08:21.698Z,79.97
2023-03-11T05:10:48.318Z,80.12
2023-03-11T05:13:15.236Z,80.16
2023-03-11T05:15:41.970Z,80.21
2023-03-11T05:18:08.650Z,80.57
2023-03-11T05:20:36.576Z,80.67
2023-03-11T05:23:03.835Z,80.84
2023-03-11T05:25:31.233Z,80.94
2023-03-11T05:27:58.491Z,80.94
2023-03-11T05:30:25.297Z,81.17
2023-03-11T05:32:52.207Z,81.37
2023-03-11T05:35:20.258Z,81.53
2023-03-11T05:37:49.097Z,81.82
2023-03-11T05:40:16.204Z,81.90
2023-03-11T05:42:43.216Z,81.94
2023-03-11T05:45:11.321Z,82.09
2023-03-11T05:47:38.073Z,82.22
2023-03-11T05:50:06.018Z,82.40
2023-03-11T05:52:33.253Z,82.43
2023-03-11T05:55:00.265Z,82.45
2023-03-11T05:57:28.365Z,82.59
2023-03-11T05:59:55.648Z,82.75
2023-03-11T06:02:22.699Z,82.84
2023-03-11T06:04:49.907Z,83.10
2023-03-11T06:07:16.720Z,82.96
2023-03-11T06:09:45.264Z,83.00
2023-03-11T06:12:15.385Z,83.06
2023-03-11T06:14:50.487Z,83.34
2023-03-11T06:17:17.347Z,83.31
2023-03-11T06:19:43.951Z,83.32
2023-03-11T06:22:10.455Z,83.39
2023-03-11T06:24:37.486Z,83.42
2023-03-11T06:27:04.676Z,83.60
2023-03-11T06:29:31.733Z,83.72
2023-03-11T06:31:58.870Z,83.76
2023-03-11T06:34:25.445Z,83.75
2023-03-11T06:36:52.245Z,83.69
2023-03-11T06:39:19.102Z,83.77
2023-03-11T06:41:47.169Z,83.80
2023-03-11T06:44:14.011Z,83.76
2023-03-11T06:46:40.856Z,83.73
2023-03-11T06:49:07.388Z,83.80
2023-03-11T06:51:34.167Z,83.69
2023-03-11T06:54:01.901Z,83.72
2023-03-11T06:56:28.501Z,83.64
2023-03-11T06:59:01.566Z,83.67
2023-03-11T07:01:31.792Z,83.68
2023-03-11T07:03:59.666Z,83.62
2023-03-11T07:06:27.802Z,83.74
2023-03-11T07:09:00.996Z,83.60
2023-03-11T07:11:28.542Z,83.64
2023-03-11T07:14:03.984Z,83.63
2023-03-11T07:16:31.831Z,83.58
2023-03-11T07:19:03.758Z,83.67
2023-03-11T07:21:32.301Z,83.46
2023-03-11T07:24:01.575Z,83.59
2023-03-11T07:26:30.040Z,83.45
2023-03-11T07:28:57.415Z,83.57
2023-03-11T07:31:27.130Z,83.50
2023-03-11T07:33:53.751Z,83.56
2023-03-11T07:36:22.763Z,83.53
2023-03-11T07:38:55.264Z,83.36
2023-03-11T07:41:22.165Z,83.45
2023-03-11T07:43:48.746Z,83.45
2023-03-11T07:46:17.831Z,83.44
2023-03-11T07:48:45.241Z,83.30
2023-03-11T07:51:15.259Z,83.21
2023-03-11T07:53:42.311Z,83.20
2023-03-11T07:56:11.377Z,83.29
2023-03-11T07:58:38.486Z,83.31
2023-03-11T08:01:15.494Z,83.09
2023-03-11T08:03:46.728Z,83.08
2023-03-11T08:06:17.433Z,83.05
2023-03-11T08:08:44.369Z,83.09
2023-03-11T08:11:15.405Z,82.96
2023-03-11T08:13:43.877Z,82.76
2023-03-11T08:16:13.373Z,82.77
2023-03-11T08:18:40.406Z,82.61
2023-03-11T08:21:09.410Z,82.61
2023-03-11T08:23:36.076Z,82.53
2023-03-11T08:26:04.439Z,82.77
2023-03-11T08:28:31.110Z,82.77
2023-03-11T08:30:57.804Z,82.69
2023-03-11T08:33:24.511Z,82.83
2023-03-11T08:35:51.221Z,82.81
2023-03-11T08:38:17.879Z,82.76
2023-03-11T08:40:44.478Z,82.69
2023-03-11T08:43:14.678Z,82.65
2023-03-11T08:45:41.684Z,82.71
2023-03-11T08:48:10.504Z,82.84
2023-03-11T08:50:52.865Z,82.92
2023-03-11T08:53:22.555Z,83.38
2023-03-11T08:55:52.589Z,83.39
2023-03-11T08:58:20.021Z,83.80
2023-03-11T09:00:47.450Z,84.03
2023-03-11T09:03:14.106Z,84.13
2023-03-11T09:05:40.744Z,84.43
2023-03-11T09:08:07.897Z,84.43
2023-03-11T09:10:34.638Z,84.52
2023-03-11T09:13:01.279Z,84.69
2023-03-11T09:15:28.149Z,84.72
2023-03-11T09:17:55.232Z,84.70
2023-03-11T09:20:22.172Z,84.56
2023-03-11T09:22:48.957Z,84.34
2023-03-11T09:25:16.033Z,84.40
2023-03-11T09:27:42.626Z,84.58
2023-03-11T09:30:10.345Z,84.39
2023-03-11T09:32:37.127Z,84.16
2023-03-11T09:35:04.602Z,83.71
2023-03-11T09:37:31.543Z,83.25
2023-03-11T09:39:58.080Z,82.96
2023-03-11T09:42:42.943Z,82.28
2023-03-11T09:45:26.933Z,81.74
2023-03-11T09:48:07.656Z,81.70
2023-03-11T09:50:49.837Z,81.34
2023-03-11T09:53:18.302Z,81.36
2023-03-11T09:55:59.403Z,81.38
2023-03-11T09:58:43.731Z,81.24
2023-03-11T10:01:25.885Z,81.37
2023-03-11T10:03:56.122Z,81.45
2023-03-11T10:06:25.234Z,81.33
2023-03-11T10:09:00.163Z,81.34
2023-03-11T10:11:33.512Z,81.58
2023-03-11T10:14:36.552Z,81.42
2023-03-11T10:17:21.606Z,81.33
2023-03-11T10:20:06.372Z,81.60
2023-03-11T10:22:36.246Z,81.73
2023-03-11T10:25:13.738Z,81.99
2023-03-11T10:27:48.074Z,82.14
2023-03-11T10:30:47.143Z,82.35
2023-03-11T10:33:58.400Z,82.26
2023-03-11T10:36:40.408Z,82.37
2023-03-11T10:39:10.382Z,82.43
2023-03-11T10:41:44.299Z,82.00
2023-03-11T10:44:16.186Z,81.78
2023-03-11T10:46:42.891Z,81.75
2023-03-11T10:49:15.024Z,81.78
2023-03-11T10:51:45.870Z,81.72
2023-03-11T10:54:43.362Z,81.64
2023-03-11T10:57:22.057Z,81.56
2023-03-11T10:59:54.656Z,81.53
2023-03-11T11:02:25.699Z,81.82
2023-03-11T11:05:17.300Z,81.60
2023-03-11T11:07:45.881Z,81.48
2023-03-11T11:10:27.343Z,81.30
2023-03-11T11:13:00.465Z,81.60
2023-03-11T11:15:42.330Z,81.98
2023-03-11T11:18:16.948Z,81.78
2023-03-11T11:20:56.395Z,81.82
2023-03-11T11:23:51.598Z,81.96
2023-03-11T11:26:24.763Z,81.90
2023-03-11T11:29:09.758Z,82.14
2023-03-11T11:31:38.205Z,82.25
2023-03-11T11:34:26.815Z,82.23
2023-03-11T11:36:56.696Z,82.19
2023-03-11T11:39:29.939Z,81.96
2023-03-11T11:41:57.218Z,81.82
2023-03-11T11:44:34.211Z,82.25
2023-03-11T11:47:34.473Z,82.46
2023-03-11T11:50:04.612Z,82.59
2023-03-11T11:52:37.200Z,82.30
2023-03-11T11:55:16.676Z,82.12
2023-03-11T11:57:43.704Z,82.22
2023-03-11T12:00:21.530Z,82.16
2023-03-11T12:03:35.887Z,82.23
2023-03-11T12:06:27.740Z,82.51
2023-03-11T12:09:08.335Z,82.67
2023-03-11T12:11:50.288Z,82.68
2023-03-11T12:14:24.869Z,82.53
2023-03-11T12:17:03.668Z,82.64
2023-03-11T12:19:36.913Z,82.63
2023-03-11T12:22:18.324Z,82.74
2023-03-11T12:25:03.831Z,82.86
2023-03-11T12:27:37.061Z,82.86
2023-03-11T12:30:12.528Z,82.94
2023-03-11T12:33:03.154Z,82.93
2023-03-11T12:35:35.174Z,82.79
2023-03-11T12:38:34.075Z,82.71
2023-03-11T12:41:06.364Z,82.87
2023-03-11T12:43:33.189Z,82.92
2023-03-11T12:46:01.864Z,83.02
2023-03-11T12:48:42.073Z,83.23
2023-03-11T12:51:27.072Z,83.32
2023-03-11T12:53:55.218Z,83.01
2023-03-11T12:56:30.873Z,83.26
2023-03-11T12:59:15.837Z,83.35
2023-03-11T13:01:57.636Z,83.47
2023-03-11T13:04:42.801Z,83.61
2023-03-11T13:07:21.439Z,83.49
2023-03-11T13:10:06.894Z,83.66
2023-03-11T13:12:39.775Z,83.47
2023-03-11T13:15:19.311Z,83.68
2023-03-11T13:18:14.397Z,83.75
2023-03-11T13:20:41.165Z,83.92
2023-03-11T13:23:13.806Z,83.85
2023-03-11T13:25:49.716Z,83.81
2023-03-11T13:28:35.291Z,84.04
2023-03-11T13:31:40.772Z,83.76
2023-03-11T13:34:15.728Z,83.80
2023-03-11T13:36:56.737Z,83.71
2023-03-11T13:40:05.932Z,83.92
2023-03-11T13:42:50.786Z,83.74
2023-03-11T13:45:29.656Z,83.80
2023-03-11T13:48:02.150Z,84.00
2023-03-11T13:50:44.502Z,83.73
2023-03-11T13:53:29.627Z,83.75
2023-03-11T13:55:56.463Z,83.57
2023-03-11T13:58:25.536Z,83.33
2023-03-11T14:00:58.340Z,83.27
2023-03-11T14:03:28.629Z,83.12
2023-03-11T14:06:02.149Z,83.15
2023-03-11T14:08:34.771Z,82.80
2023-03-11T14:11:03.779Z,82.72
2023-03-11T14:13:33.257Z,82.60
2023-03-11T14:16:02.958Z,82.39
2023-03-11T14:18:33.240Z,82.47
2023-03-11T14:21:00.985Z,82.24
2023-03-11T14:23:32.399Z,82.05
2023-03-11T14:26:02.033Z,81.82
2023-03-11T14:28:32.595Z,82.01
2023-03-11T14:31:01.410Z,81.83
2023-03-11T14:33:28.502Z,81.66
2023-03-11T14:36:01.542Z,81.59
2023-03-11T14:38:31.284Z,81.48
2023-03-11T14:41:00.553Z,80.95
2023-03-11T14:43:34.456Z,80.90
2023-03-11T14:46:03.870Z,80.65
2023-03-11T14:48:37.418Z,80.36
2023-03-11T14:51:10.064Z,80.55
2023-03-11T14:53:43.146Z,80.34
2023-03-11T14:56:18.321Z,80.29
2023-03-11T14:59:06.456Z,80.10
2023-03-11T15:01:40.039Z,79.75
2023-03-11T15:04:07.028Z,79.34
2023-03-11T15:06:38.647Z,79.04
2023-03-11T15:09:16.223Z,78.77
2023-03-11T15:12:03.879Z,78.68
2023-03-11T15:14:33.614Z,78.85
2023-03-11T15:17:35.430Z,78.70
2023-03-11T15:20:23.660Z,78.78
2023-03-11T15:23:05.870Z,78.40
2023-03-11T15:25:36.772Z,78.50
2023-03-11T15:28:39.348Z,78.38
2023-03-11T15:31:19.803Z,78.41
2023-03-11T15:33:47.518Z,78.62
2023-03-11T15:36:39.001Z,78.97
2023-03-11T15:39:16.964Z,79.32
2023-03-11T15:41:47.355Z,79.64
2023-03-11T15:44:24.717Z,79.79
2023-03-11T15:46:52.677Z,79.62
2023-03-11T15:49:19.743Z,79.28
2023-03-11T15:51:47.021Z,79.25
2023-03-11T15:54:14.200Z,79.23
2023-03-11T15:56:41.823Z,79.01
2023-03-11T15:59:15.975Z,78.55
2023-03-11T16:01:43.014Z,78.33
2023-03-11T16:04:14.996Z,78.17
2023-03-11T16:06:42.892Z,78.26
2023-03-11T16:09:10.708Z,78.33
2023-03-11T16:11:38.424Z,78.16
2023-03-11T16:14:05.749Z,78.17
2023-03-11T16:16:32.696Z,77.88
2023-03-11T16:18:59.254Z,78.24
2023-03-11T16:21:33.986Z,78.57
2023-03-11T16:24:00.784Z,78.88
2023-03-11T16:26:27.559Z,79.23
2023-03-11T16:28:54.327Z,79.36
2023-03-11T16:31:21.259Z,79.75
2023-03-11T16:33:47.806Z,79.64
2023-03-11T16:36:14.421Z,79.50
2023-03-11T16:38:49.608Z,79.42
2023-03-11T16:41:17.036Z,79.22
2023-03-11T16:43:44.381Z,79.23
2023-03-11T16:46:11.296Z,79.10
2023-03-11T16:48:42.083Z,78.97
2023-03-11T16:51:14.765Z,79.08
2023-03-11T16:53:41.372Z,79.11
2023-03-11T16:56:07.972Z,79.03
2023-03-11T16:58:34.827Z,79.27
2023-03-11T17:01:01.377Z,79.43
2023-03-11T17:03:34.460Z,79.53
2023-03-11T17:06:07.836Z,79.52
2023-03-11T17:08:34.629Z,79.54
2023-03-11T17:11:01.250Z,79.64
2023-03-11T17:13:27.999Z,79.51
2023-03-11T17:16:02.355Z,79.45
2023-03-11T17:18:29.195Z,79.53
2023-03-11T17:20:55.690Z,79.28
2023-03-11T17:23:22.858Z,79.57
2023-03-11T17:25:49.640Z,79.53
2023-03-11T17:28:16.294Z,79.29
2023-03-11T17:30:44.506Z,79.28
2023-03-11T17:33:11.326Z,79.17
2023-03-11T17:35:37.996Z,79.34
2023-03-11T17:38:05.191Z,79.15
2023-03-11T17:40:32.148Z,78.96
2023-03-11T17:42:59.324Z,78.84
2023-03-11T17:45:25.999Z,78.65
2023-03-11T17:47:52.720Z,78.55
2023-03-11T17:50:19.410Z,78.40
2023-03-11T17:52:46.797Z,78.28
2023-03-11T17:55:13.322Z,77.93
2023-03-11T17:57:45.402Z,77.78
2023-03-11T18:00:14.200Z,77.67
2023-03-11T18:02:41.036Z,77.43
2023-03-11T18:05:08.709Z,77.21
2023-03-11T18:07:38.536Z,76.54
2023-03-11T18:10:07.107Z,76.08
2023-03-11T18:12:33.698Z,75.70
2023-03-11T18:15:05.489Z,75.33
2023-03-11T18:17:34.808Z,74.91
2023-03-11T18:20:01.785Z,74.84
2023-03-11T18:22:28.557Z,74.95
2023-03-11T18:24:55.430Z,74.44
2023-03-11T18:27:23.878Z,74.56
2023-03-11T18:29:51.361Z,74.13
2023-03-11T18:32:22.790Z,73.99
2023-03-11T18:34:50.617Z,74.06
2023-03-11T18:37:17.423Z,74.32
2023-03-11T18:39:44.204Z,74.24
2023-03-11T18:42:13.387Z,74.32
2023-03-11T18:44:41.464Z,73.98
2023-03-11T18:47:08.613Z,73.92
2023-03-11T18:49:35.269Z,73.63
2023-03-11T18:52:01.933Z,73.89
2023-03-11T18:54:28.689Z,74.11
2023-03-11T18:56:55.203Z,73.82
2023-03-11T18:59:21.950Z,73.95
2023-03-11T19:01:50.334Z,74.00
2023-03-11T19:04:18.219Z,73.81
2023-03-11T19:06:45.450Z,73.48
2023-03-11T19:09:12.296Z,73.46
2023-03-11T19:11:38.810Z,73.28
2023-03-11T19:14:05.530Z,73.26
2023-03-11T19:16:32.477Z,73.60
2023-03-11T19:19:01.149Z,73.18
2023-03-11T19:21:28.438Z,73.07
2023-03-11T19:23:56.709Z,73.10
2023-03-11T19:26:41.386Z,73.34
2023-03-11T19:29:13.157Z,73.31
2023-03-11T19:31:40.202Z,73.25
2023-03-11T19:34:07.820Z,73.39
2023-03-11T19:36:35.441Z,73.27
2023-03-11T19:39:02.963Z,73.29
2023-03-11T19:41:29.730Z,73.34
2023-03-11T19:43:56.647Z,73.23
2023-03-11T19:46:23.345Z,73.15
2023-03-11T19:48:50.274Z,72.96
2023-03-11T19:51:19.097Z,73.01
2023-03-11T19:53:46.654Z,73.24
2023-03-11T19:56:13.665Z,73.23
2023-03-11T19:58:42.409Z,73.26
2023-03-11T20:01:18.424Z,73.31
2023-03-11T20:04:02.229Z,73.28
2023-03-11T20:06:30.589Z,73.40
2023-03-11T20:08:57.620Z,73.37
2023-03-11T20:11:24.518Z,73.12
2023-03-11T20:13:51.188Z,73.31
2023-03-11T20:16:19.276Z,73.35
2023-03-11T20:18:51.050Z,73.54
2023-03-11T20:21:18.273Z,73.59
2023-03-11T20:23:45.017Z,73.75
2023-03-11T20:26:14.757Z,73.64
2023-03-11T20:28:42.339Z,73.83
2023-03-11T20:31:11.606Z,73.57
2023-03-11T20:33:39.658Z,73.69
2023-03-11T20:36:10.461Z,73.55
2023-03-11T20:38:39.410Z,73.72
2023-03-11T20:41:11.030Z,73.85
2023-03-11T20:43:39.955Z,73.78
2023-03-11T20:46:09.027Z,73.74
2023-03-11T20:48:39.330Z,73.89
2023-03-11T20:51:12.151Z,73.86
2023-03-11T20:53:40.116Z,73.95
2023-03-11T20:56:15.801Z,73.88
2023-03-11T20:58:43.963Z,73.82
2023-03-11T21:01:22.347Z,74.11
2023-03-11T21:03:49.646Z,73.97
2023-03-11T21:06:21.337Z,73.74
2023-03-11T21:08:49.435Z,73.96
2023-03-11T21:11:16.946Z,74.32
2023-03-11T21:13:43.821Z,74.07
2023-03-11T21:16:11.081Z,74.33
2023-03-11T21:18:38.354Z,74.31
2023-03-11T21:21:07.632Z,74.35
2023-03-11T21:23:35.275Z,74.56
2023-03-11T21:26:03.905Z,74.61
2023-03-11T21:28:31.716Z,74.79
2023-03-11T21:31:05.015Z,74.79
2023-03-11T21:33:32.187Z,74.94
2023-03-11T21:36:00.398Z,74.99
2023-03-11T21:38:28.620Z,75.18
2023-03-11T21:41:09.740Z,75.36
2023-03-11T21:43:37.583Z,75.39
2023-03-11T21:46:05.471Z,75.38
2023-03-11T21:48:33.000Z,75.35
2023-03-11T21:51:00.589Z,75.36
2023-03-11T21:53:28.821Z,75.32
2023-03-11T21:55:55.855Z,75.24
2023-03-11T21:58:22.979Z,75.24
2023-03-11T22:00:49.969Z,75.37
2023-03-11T22:03:18.329Z,75.20
2023-03-11T22:05:45.147Z,75.18
2023-03-11T22:08:13.949Z,75.08
2023-03-11T22:10:41.338Z,75.19
2023-03-11T22:13:08.256Z,75.20
2023-03-11T22:15:36.172Z,75.17
2023-03-11T22:18:03.130Z,75.27
2023-03-11T22:20:30.208Z,75.31
2023-03-11T22:22:57.046Z,75.30
2023-03-11T22:25:23.601Z,75.28
2023-03-11T22:27:50.360Z,75.31
2023-03-11T22:30:17.092Z,75.48
2023-03-11T22:32:43.791Z,75.37
2023-03-11T22:35:10.727Z,75.44
2023-03-11T22:37:37.605Z,75.44
2023-03-11T22:40:08.282Z,75.37
2023-03-11T22:42:35.812Z,75.44
2023-03-11T22:45:04.749Z,75.59
2023-03-11T22:47:31.340Z,75.75
2023-03-11T22:49:58.072Z,75.70
2023-03-11T22:52:26.008Z,75.83
2023-03-11T22:54:52.630Z,75.84
2023-03-11T22:57:19.468Z,76.13
2023-03-11T22:59:46.141Z,76.06
2023-03-11T23:02:12.800Z,76.10
2023-03-11T23:04:39.635Z,76.26
2023-03-11T23:07:06.500Z,76.14
2023-03-11T23:09:34.310Z,76.38
2023-03-11T23:12:03.250Z,76.34
2023-03-11T23:14:43.706Z,76.44
2023-03-11T23:17:12.250Z,76.37
2023-03-11T23:19:39.449Z,76.48
2023-03-11T23:22:06.389Z,76.54
2023-03-11T23:24:33.470Z,76.62
2023-03-11T23:27:03.933Z,76.56
2023-03-11T23:29:31.323Z,76.61
2023-03-11T23:31:58.287Z,76.53
2023-03-11T23:34:25.274Z,76.74
2023-03-11T23:36:51.978Z,76.66
2023-03-11T23:39:18.838Z,76.85
2023-03-11T23:41:45.349Z,77.11
2023-03-11T23:44:13.691Z,77.25
2023-03-11T23:46:40.535Z,77.27
2023-03-11T23:49:07.357Z,77.40
2023-03-11T23:51:33.828Z,77.47
2023-03-11T23:54:00.423Z,77.38
2023-03-11T23:56:27.446Z,77.65
2023-03-11T23:58:53.877Z,77.68
